createdAt,value
2017-04-28T00:00:42.529Z,33.85
2017-04-28T00:03:10.915Z,37.23
2017-04-28T00:05:39.307Z,34.05
2017-04-28T00:08:07.753Z,41.82
2017-04-28T00:10:35.704Z,36.10
2017-04-28T00:13:04.017Z,37.62
2017-04-28T00:15:33.894Z,42.37
2017-04-28T00:18:01.453Z,41.57
2017-04-28T00:20:29.765Z,40.55
2017-04-28T00:22:57.309Z,42.83
2017-04-28T00:25:25.288Z,39.70
2017-04-28T00:27:53.220Z,46.17
2017-04-28T00:30:20.768Z,44.33
2017-04-28T00:32:48.741Z,43.20
2017-04-28T00:35:16.680Z,44.00
2017-04-28T00:37:44.628Z,44.45
2017-04-28T00:40:12.597Z,45.30
2017-04-28T00:42:40.544Z,53.43
2017-04-28T00:45:08.861Z,57.28
2017-04-28T00:47:36.828Z,48.00
2017-04-28T00:50:04.816Z,55.07
2017-04-28T00:52:32.373Z,44.58
2017-04-28T00:55:00.355Z,50.62
2017-04-28T00:57:28.299Z,51.53
2017-04-28T00:59:56.236Z,43.88
2017-04-28T01:02:24.576Z,44.13
2017-04-28T01:04:52.515Z,46.34
2017-04-28T01:07:20.452Z,61.93
2017-04-28T01:09:48.788Z,41.03
2017-04-28T01:12:16.732Z,51.45
2017-04-28T01:14:44.668Z,51.55
2017-04-28T01:17:13.000Z,50.63
2017-04-28T01:19:40.944Z,51.40
2017-04-28T01:22:08.889Z,54.48
2017-04-28T01:24:37.225Z,62.18
2017-04-28T01:27:05.181Z,66.12
2017-04-28T01:29:33.115Z,69.60
2017-04-28T01:32:00.686Z,71.77
2017-04-28T01:34:28.656Z,78.67
2017-04-28T01:36:56.592Z,86.07
2017-04-28T01:39:24.563Z,83.02
2017-04-28T01:41:52.511Z,91.18
2017-04-28T01:44:20.448Z,89.85
2017-04-28T01:46:48.413Z,91.10
2017-04-28T01:49:16.372Z,93.03
2017-04-28T01:51:44.672Z,93.87
2017-04-28T01:54:12.243Z,100.25
2017-04-28T01:56:40.184Z,98.65
2017-04-28T01:59:08.497Z,96.43
2017-04-28T02:01:36.457Z,91.83
2017-04-28T02:04:04.432Z,91.13
2017-04-28T02:06:32.376Z,88.18
2017-04-28T02:09:00.335Z,93.95
2017-04-28T02:11:28.655Z,100.60
2017-04-28T02:13:56.598Z,90.12
2017-04-28T02:16:24.564Z,81.63
2017-04-28T02:18:52.511Z,96.77
2017-04-28T02:21:20.820Z,96.75
2017-04-28T02:23:48.396Z,102.85
2017-04-28T02:26:16.336Z,104.65
2017-04-28T02:28:44.653Z,102.05
2017-04-28T02:31:12.620Z,108.63
2017-04-28T02:33:40.568Z,113.75
2017-04-28T02:36:08.515Z,107.27
2017-04-28T02:38:36.853Z,106.22
2017-04-28T02:41:04.796Z,112.53
2017-04-28T02:43:32.352Z,107.12
2017-04-28T02:45:59.932Z,113.68
2017-04-28T02:48:27.879Z,125.65
2017-04-28T02:50:55.825Z,153.43
2017-04-28T02:53:24.535Z,144.33
2017-04-28T02:55:52.480Z,128.58
2017-04-28T02:58:20.796Z,142.35
2017-04-28T03:00:48.765Z,123.40
2017-04-28T03:03:16.315Z,117.47
2017-04-28T03:05:44.256Z,113.50
2017-04-28T03:08:12.232Z,106.57
2017-04-28T03:10:40.554Z,113.35
2017-04-28T03:13:08.488Z,98.38
2017-04-28T03:15:36.825Z,89.22
2017-04-28T03:18:04.770Z,79.98
2017-04-28T03:20:32.712Z,100.00
2017-04-28T03:23:01.052Z,98.35
2017-04-28T03:25:28.992Z,129.22
2017-04-28T03:27:56.937Z,118.30
2017-04-28T03:30:24.906Z,107.88
2017-04-28T03:32:52.466Z,120.07
2017-04-28T03:35:20.782Z,148.67
2017-04-28T03:37:48.345Z,138.42
2017-04-28T03:40:16.288Z,146.03
2017-04-28T03:42:44.230Z,163.03
2017-04-28T03:45:12.561Z,154.02
2017-04-28T03:47:40.528Z,173.58
2017-04-28T03:50:08.468Z,166.57
2017-04-28T03:52:36.437Z,178.47
2017-04-28T03:55:04.376Z,164.23
2017-04-28T03:57:32.324Z,177.33
2017-04-28T04:00:00.354Z,172.70
2017-04-28T04:02:27.899Z,178.35
2017-04-28T04:04:55.444Z,183.47
2017-04-28T04:07:23.413Z,164.90
2017-04-28T04:09:51.367Z,168.47
2017-04-28T04:12:19.308Z,180.35
2017-04-28T04:14:47.272Z,174.58
2017-04-28T04:17:14.820Z,179.02
2017-04-28T04:19:42.765Z,181.02
2017-04-28T04:22:10.736Z,190.43
2017-04-28T04:24:39.053Z,170.52
2017-04-28T04:27:06.988Z,173.73
2017-04-28T04:29:34.977Z,178.55
2017-04-28T04:32:02.516Z,174.28
2017-04-28T04:34:30.827Z,172.85
2017-04-28T04:36:58.803Z,173.38
2017-04-28T04:39:26.749Z,179.58
2017-04-28T04:41:54.687Z,168.87
2017-04-28T04:44:22.656Z,165.47
2017-04-28T04:46:50.637Z,168.90
2017-04-28T04:49:18.581Z,188.37
2017-04-28T04:51:46.556Z,185.37
2017-04-28T04:54:14.495Z,160.45
2017-04-28T04:56:42.441Z,166.63
2017-04-28T04:59:10.409Z,159.47
2017-04-28T05:01:38.744Z,177.92
2017-04-28T05:04:06.708Z,165.43
2017-04-28T05:06:34.653Z,176.10
2017-04-28T05:09:02.224Z,154.82
2017-04-28T05:11:30.172Z,161.35
2017-04-28T05:13:58.111Z,162.83
2017-04-28T05:16:26.074Z,179.18
2017-04-28T05:18:54.020Z,176.02
2017-04-28T05:21:21.963Z,162.32
2017-04-28T05:23:49.929Z,155.42
2017-04-28T05:26:17.872Z,179.43
2017-04-28T05:28:45.816Z,162.75
2017-04-28T05:31:13.779Z,159.40
2017-04-28T05:33:41.720Z,147.98
2017-04-28T05:36:09.664Z,153.25
2017-04-28T05:38:37.640Z,148.87
2017-04-28T05:41:05.617Z,163.87
2017-04-28T05:43:33.552Z,147.05
2017-04-28T05:46:01.894Z,138.45
2017-04-28T05:48:29.836Z,117.52
2017-04-28T05:50:57.788Z,114.92
2017-04-28T05:53:25.429Z,94.15
2017-04-28T05:55:52.963Z,107.83
2017-04-28T05:58:20.904Z,91.48
2017-04-28T06:00:48.859Z,89.55
2017-04-28T06:03:16.796Z,93.18
2017-04-28T06:05:44.737Z,107.58
2017-04-28T06:08:12.712Z,72.88
2017-04-28T06:10:40.659Z,80.95
2017-04-28T06:13:08.587Z,78.10
2017-04-28T06:15:36.156Z,89.07
2017-04-28T06:18:04.467Z,80.67
2017-04-28T06:20:32.400Z,70.50
2017-04-28T06:23:00.740Z,74.80
2017-04-28T06:25:28.699Z,78.88
2017-04-28T06:27:56.635Z,74.70
2017-04-28T06:30:24.604Z,72.98
2017-04-28T06:32:52.544Z,68.22
2017-04-28T06:35:20.492Z,76.48
2017-04-28T06:37:48.464Z,71.85
2017-04-28T06:40:16.400Z,78.75
2017-04-28T06:42:44.349Z,80.53
2017-04-28T06:45:12.675Z,76.43
2017-04-28T06:47:40.616Z,81.42
2017-04-28T06:50:08.556Z,63.72
2017-04-28T06:52:36.523Z,64.58
2017-04-28T06:55:04.827Z,57.95
2017-04-28T06:57:32.767Z,64.70
2017-04-28T07:00:01.100Z,60.00
2017-04-28T07:02:29.036Z,55.86
2017-04-28T07:04:56.977Z,59.38
2017-04-28T07:07:25.675Z,64.84
2017-04-28T07:09:54.333Z,68.25
2017-04-28T07:12:22.268Z,53.55
2017-04-28T07:14:50.223Z,61.52
2017-04-28T07:17:18.161Z,61.44
2017-04-28T07:19:46.104Z,57.08
2017-04-28T07:22:14.068Z,59.16
2017-04-28T07:24:42.003Z,64.44
2017-04-28T07:27:09.936Z,65.50
2017-04-28T07:29:37.892Z,66.84
2017-04-28T07:32:05.828Z,60.66
2017-04-28T07:34:33.760Z,53.38
2017-04-28T07:37:02.103Z,66.16
2017-04-28T07:39:30.036Z,62.02
2017-04-28T07:41:57.971Z,69.22
2017-04-28T07:44:25.923Z,59.58
2017-04-28T07:46:53.859Z,68.30
2017-04-28T07:49:21.788Z,61.82
2017-04-28T07:51:50.548Z,73.08
2017-04-28T07:54:18.501Z,66.10
2017-04-28T07:56:46.440Z,69.48
2017-04-28T07:59:14.405Z,97.28
2017-04-28T08:01:42.345Z,65.86
2017-04-28T08:04:10.285Z,72.00
2017-04-28T08:06:38.239Z,59.82
2017-04-28T08:09:06.172Z,67.98
2017-04-28T08:11:34.484Z,56.72
2017-04-28T08:14:02.445Z,66.34
2017-04-28T08:16:30.370Z,65.86
2017-04-28T08:18:58.303Z,55.52
2017-04-28T08:21:25.863Z,59.72
2017-04-28T08:23:53.791Z,57.14
2017-04-28T08:26:22.105Z,50.40
2017-04-28T08:28:50.060Z,56.14
2017-04-28T08:31:17.987Z,51.18
2017-04-28T08:33:45.915Z,49.76
2017-04-28T08:36:13.868Z,42.82
2017-04-28T08:38:41.803Z,48.80
2017-04-28T08:41:09.335Z,49.74
2017-04-28T08:43:37.311Z,52.44
2017-04-28T08:46:05.247Z,58.60
2017-04-28T08:48:33.180Z,48.56
2017-04-28T08:51:00.750Z,57.20
2017-04-28T08:53:29.057Z,49.04
2017-04-28T08:55:56.983Z,37.16
2017-04-28T08:58:24.940Z,43.12
2017-04-28T09:00:52.480Z,41.12
2017-04-28T09:03:20.412Z,45.18
2017-04-28T09:05:47.979Z,42.04
2017-04-28T09:08:15.912Z,46.36
2017-04-28T09:10:43.851Z,47.14
2017-04-28T09:13:11.820Z,43.96
2017-04-28T09:15:39.796Z,46.40
2017-04-28T09:18:07.779Z,45.92
2017-04-28T09:20:35.731Z,47.94
2017-04-28T09:23:03.668Z,46.14
2017-04-28T09:25:31.603Z,47.76
2017-04-28T09:27:59.164Z,48.36
2017-04-28T09:30:27.099Z,48.94
2017-04-28T09:32:55.040Z,52.18
2017-04-28T09:35:22.608Z,41.48
2017-04-28T09:37:50.548Z,48.94
2017-04-28T09:40:18.856Z,44.58
2017-04-28T09:42:46.415Z,37.10
2017-04-28T09:45:14.356Z,39.80
2017-04-28T09:47:42.669Z,43.46
2017-04-28T09:50:10.631Z,36.46
2017-04-28T09:52:38.567Z,41.64
2017-04-28T09:55:06.876Z,41.66
2017-04-28T09:57:34.451Z,36.62
2017-04-28T10:00:01.996Z,41.36
2017-04-28T10:02:29.932Z,42.24
2017-04-28T10:04:57.892Z,38.54
2017-04-28T10:07:25.827Z,35.92
2017-04-28T10:09:53.765Z,42.62
2017-04-28T10:12:22.103Z,35.18
2017-04-28T10:14:50.044Z,33.44
2017-04-28T10:17:17.984Z,34.62
2017-04-28T10:19:45.944Z,29.62
2017-04-28T10:22:14.260Z,32.34
2017-04-28T10:24:42.188Z,33.22
2017-04-28T10:27:10.516Z,38.52
2017-04-28T10:29:38.057Z,31.62
2017-04-28T10:32:05.596Z,32.06
2017-04-28T10:34:33.932Z,32.66
2017-04-28T10:37:01.872Z,32.44
2017-04-28T10:39:29.804Z,31.14
2017-04-28T10:41:58.131Z,26.26
2017-04-28T10:44:26.071Z,32.60
2017-04-28T10:46:54.008Z,28.28
2017-04-28T10:49:21.976Z,31.00
2017-04-28T10:51:49.907Z,24.50
2017-04-28T10:54:17.456Z,31.98
2017-04-28T10:56:45.417Z,22.96
2017-04-28T10:59:13.388Z,18.64
2017-04-28T11:01:40.904Z,28.52
2017-04-28T11:04:08.859Z,28.08
2017-04-28T11:06:36.797Z,28.58
2017-04-28T11:09:04.728Z,28.36
2017-04-28T11:11:32.695Z,23.06
2017-04-28T11:14:00.632Z,44.08
2017-04-28T11:16:28.576Z,35.52
2017-04-28T11:18:56.543Z,23.96
2017-04-28T11:21:24.472Z,32.14
2017-04-28T11:23:52.407Z,25.82
2017-04-28T11:26:20.393Z,25.38
2017-04-28T11:28:48.328Z,27.34
2017-04-28T11:31:15.872Z,29.54
2017-04-28T11:33:43.859Z,24.86
2017-04-28T11:36:11.800Z,26.16
2017-04-28T11:38:40.103Z,27.68
2017-04-28T11:41:08.080Z,26.48
2017-04-28T11:43:36.017Z,29.80
2017-04-28T11:46:04.325Z,23.44
2017-04-28T11:48:32.285Z,27.08
2017-04-28T11:50:59.828Z,26.16
2017-04-28T11:53:28.134Z,28.42
2017-04-28T11:55:56.097Z,28.02
2017-04-28T11:58:23.628Z,33.20
2017-04-28T12:00:51.936Z,23.80
2017-04-28T12:03:19.906Z,27.64
2017-04-28T12:05:47.839Z,28.86
2017-04-28T12:08:15.385Z,27.62
2017-04-28T12:10:43.340Z,28.34
2017-04-28T12:13:11.270Z,23.14
2017-04-28T12:15:39.211Z,28.30
2017-04-28T12:18:07.175Z,23.86
2017-04-28T12:20:35.120Z,23.44
2017-04-28T12:23:03.056Z,22.08
2017-04-28T12:25:31.025Z,27.50
2017-04-28T12:27:58.964Z,24.58
2017-04-28T12:30:26.905Z,29.06
2017-04-28T12:32:54.476Z,21.42
2017-04-28T12:35:22.408Z,22.74
2017-04-28T12:37:50.349Z,20.30
2017-04-28T12:40:18.688Z,26.76
2017-04-28T12:42:46.624Z,28.20
2017-04-28T12:45:14.650Z,34.76
2017-04-28T12:47:42.597Z,28.84
2017-04-28T12:50:10.532Z,27.24
2017-04-28T12:52:38.479Z,22.00
2017-04-28T12:55:06.808Z,23.56
2017-04-28T12:57:34.740Z,26.96
2017-04-28T13:00:02.682Z,22.64
2017-04-28T13:02:30.635Z,29.80
2017-04-28T13:04:58.596Z,25.68
2017-04-28T13:07:26.532Z,19.60
2017-04-28T13:09:54.505Z,19.94
2017-04-28T13:12:22.442Z,23.62
2017-04-28T13:14:50.014Z,25.36
2017-04-28T13:17:17.972Z,26.66
2017-04-28T13:19:45.521Z,25.96
2017-04-28T13:22:13.470Z,26.12
2017-04-28T13:24:41.435Z,23.98
2017-04-28T13:27:09.372Z,22.38
2017-04-28T13:29:37.321Z,29.24
2017-04-28T13:32:05.657Z,25.22
2017-04-28T13:34:33.582Z,24.56
2017-04-28T13:37:01.135Z,25.84
2017-04-28T13:39:29.092Z,27.68
2017-04-28T13:41:57.407Z,27.26
2017-04-28T13:44:25.348Z,39.40
2017-04-28T13:46:52.926Z,27.30
2017-04-28T13:49:20.860Z,22.56
2017-04-28T13:51:49.168Z,21.94
2017-04-28T13:54:16.744Z,23.54
2017-04-28T13:56:44.711Z,46.02
2017-04-28T13:59:12.645Z,22.82
2017-04-28T14:01:40.980Z,30.66
2017-04-28T14:04:08.921Z,30.78
2017-04-28T14:06:36.861Z,25.62
2017-04-28T14:09:04.824Z,20.86
2017-04-28T14:11:32.759Z,24.14
2017-04-28T14:14:00.703Z,19.48
2017-04-28T14:16:28.675Z,20.94
2017-04-28T14:18:56.612Z,18.70
2017-04-28T14:21:24.156Z,32.78
2017-04-28T14:23:52.115Z,21.86
2017-04-28T14:26:20.057Z,30.66
2017-04-28T14:28:48.004Z,21.02
2017-04-28T14:31:15.965Z,17.84
2017-04-28T14:33:43.503Z,15.88
2017-04-28T14:36:11.073Z,18.16
2017-04-28T14:38:39.023Z,17.50
2017-04-28T14:41:06.946Z,18.10
2017-04-28T14:43:34.512Z,18.68
2017-04-28T14:46:02.480Z,19.32
2017-04-28T14:48:30.022Z,18.80
2017-04-28T14:50:57.960Z,19.44
2017-04-28T14:53:25.925Z,22.52
2017-04-28T14:55:53.869Z,21.36
2017-04-28T14:58:21.812Z,18.34
2017-04-28T15:00:49.772Z,18.94
2017-04-28T15:03:18.076Z,25.06
2017-04-28T15:05:46.020Z,15.22
2017-04-28T15:08:13.620Z,24.06
2017-04-28T15:10:41.552Z,22.74
2017-04-28T15:13:09.861Z,19.10
2017-04-28T15:15:37.436Z,15.68
2017-04-28T15:18:05.376Z,14.64
2017-04-28T15:20:33.307Z,16.88
2017-04-28T15:23:01.367Z,15.72
2017-04-28T15:25:29.298Z,11.46
2017-04-28T15:27:57.242Z,15.82
2017-04-28T15:30:24.808Z,14.90
2017-04-28T15:32:52.748Z,16.20
2017-04-28T15:35:20.683Z,18.00
2017-04-28T15:37:48.646Z,19.46
2017-04-28T15:40:16.245Z,21.56
2017-04-28T15:42:43.796Z,21.52
2017-04-28T15:45:11.359Z,18.88
2017-04-28T15:47:39.297Z,19.54
2017-04-28T15:50:06.845Z,17.88
2017-04-28T15:52:34.795Z,19.38
2017-04-28T15:55:02.746Z,21.52
2017-04-28T15:57:30.292Z,17.10
2017-04-28T15:59:58.268Z,22.28
2017-04-28T16:02:25.808Z,20.66
2017-04-28T16:04:53.781Z,20.04
2017-04-28T16:07:21.720Z,21.66
2017-04-28T16:09:49.677Z,22.40
2017-04-28T16:12:17.640Z,19.22
2017-04-28T16:14:45.577Z,19.08
2017-04-28T16:17:13.538Z,16.54
2017-04-28T16:19:41.481Z,16.96
2017-04-28T16:22:09.031Z,15.86
2017-04-28T16:24:36.997Z,16.84
2017-04-28T16:27:04.957Z,13.48
2017-04-28T16:29:32.908Z,14.58
2017-04-28T16:32:01.264Z,22.02
2017-04-28T16:34:29.221Z,12.84
2017-04-28T16:36:57.157Z,12.88
2017-04-28T16:39:25.142Z,12.02
2017-04-28T16:41:52.679Z,17.16
2017-04-28T16:44:20.223Z,16.92
2017-04-28T16:46:48.560Z,22.36
2017-04-28T16:49:16.491Z,13.98
2017-04-28T16:51:44.425Z,18.14
2017-04-28T16:54:12.404Z,16.96
2017-04-28T16:56:39.947Z,19.80
2017-04-28T16:59:07.896Z,16.94
2017-04-28T17:01:35.875Z,21.26
2017-04-28T17:04:03.820Z,20.92
2017-04-28T17:06:31.759Z,13.16
2017-04-28T17:08:59.738Z,15.26
2017-04-28T17:11:27.681Z,13.34
2017-04-28T17:13:55.665Z,16.20
2017-04-28T17:16:24.008Z,17.78
2017-04-28T17:18:51.565Z,11.78
2017-04-28T17:21:19.492Z,18.54
2017-04-28T17:23:47.468Z,14.68
2017-04-28T17:26:15.397Z,25.08
2017-04-28T17:28:43.350Z,19.08
2017-04-28T17:31:11.308Z,19.36
2017-04-28T17:33:39.256Z,23.64
2017-04-28T17:36:06.804Z,23.86
2017-04-28T17:38:34.936Z,21.28
2017-04-28T17:41:02.915Z,15.14
2017-04-28T17:43:31.391Z,19.62
2017-04-28T17:45:59.417Z,20.08
2017-04-28T17:48:27.663Z,19.58
2017-04-28T17:50:55.918Z,26.68
2017-04-28T17:53:23.633Z,16.14
2017-04-28T17:55:51.826Z,17.50
2017-04-28T17:58:19.943Z,24.80
2017-04-28T18:00:48.516Z,21.64
2017-04-28T18:03:16.669Z,19.24
2017-04-28T18:05:44.279Z,16.22
2017-04-28T18:08:12.745Z,19.40
2017-04-28T18:10:40.335Z,19.84
2017-04-28T18:13:08.519Z,26.16
2017-04-28T18:15:36.703Z,22.06
2017-04-28T18:18:04.934Z,21.12
2017-04-28T18:20:33.334Z,19.84
2017-04-28T18:23:01.198Z,18.02
2017-04-28T18:25:29.680Z,19.92
2017-04-28T18:27:58.254Z,18.24
2017-04-28T18:30:26.116Z,23.72
2017-04-28T18:32:54.488Z,21.86
2017-04-28T18:35:23.030Z,18.26
2017-04-28T18:37:51.710Z,24.44
2017-04-28T18:40:20.011Z,23.08
2017-04-28T18:42:49.328Z,19.62
2017-04-28T18:45:18.239Z,27.16
2017-04-28T18:47:47.147Z,20.70
2017-04-28T18:50:16.212Z,20.30
2017-04-28T18:52:45.082Z,21.64
2017-04-28T18:55:13.964Z,23.88
2017-04-28T18:57:43.506Z,22.02
2017-04-28T19:00:12.519Z,19.94
2017-04-28T19:02:41.431Z,15.88
2017-04-28T19:05:10.863Z,17.23
2017-04-28T19:07:39.839Z,19.24
2017-04-28T19:10:08.421Z,20.70
2017-04-28T19:12:37.834Z,17.36
2017-04-28T19:15:06.499Z,17.76
2017-04-28T19:17:36.162Z,20.84
2017-04-28T19:20:05.408Z,21.46
2017-04-28T19:22:34.397Z,19.06
2017-04-28T19:25:03.511Z,20.74
2017-04-28T19:27:32.823Z,20.96
2017-04-28T19:30:02.139Z,17.48
2017-04-28T19:32:31.229Z,18.74
2017-04-28T19:35:00.225Z,24.30
2017-04-28T19:37:29.186Z,23.44
2017-04-28T19:39:58.240Z,16.88
2017-04-28T19:42:27.248Z,22.92
2017-04-28T19:44:56.215Z,13.94
2017-04-28T19:47:25.998Z,21.10
2017-04-28T19:49:54.588Z,22.16
2017-04-28T19:52:23.131Z,23.70
2017-04-28T19:54:52.884Z,25.33
2017-04-28T19:57:21.902Z,26.72
2017-04-28T19:59:50.883Z,24.02
2017-04-28T20:02:19.712Z,26.70
2017-04-28T20:04:48.689Z,24.14
2017-04-28T20:07:18.587Z,25.92
2017-04-28T20:09:48.599Z,26.38
2017-04-28T20:12:17.589Z,19.85
2017-04-28T20:14:46.933Z,21.78
2017-04-28T20:17:15.991Z,26.42
2017-04-28T20:19:44.551Z,21.54
2017-04-28T20:22:13.482Z,21.20
2017-04-28T20:24:42.316Z,20.62
2017-04-28T20:27:11.432Z,23.15
2017-04-28T20:29:40.402Z,26.68
2017-04-28T20:32:09.633Z,29.37
2017-04-28T20:34:38.476Z,24.03
2017-04-28T20:37:07.453Z,18.18
2017-04-28T20:39:36.070Z,26.78
2017-04-28T20:42:05.071Z,30.30
2017-04-28T20:44:34.090Z,31.02
2017-04-28T20:47:03.530Z,22.40
2017-04-28T20:49:32.108Z,28.86
2017-04-28T20:52:01.168Z,27.98
2017-04-28T20:54:29.791Z,17.70
2017-04-28T20:56:58.812Z,30.80
2017-04-28T20:59:27.779Z,21.82
2017-04-28T21:01:56.834Z,19.72
2017-04-28T21:04:26.481Z,27.33
2017-04-28T21:06:55.141Z,23.56
2017-04-28T21:09:24.000Z,19.18
2017-04-28T21:11:52.874Z,21.50
2017-04-28T21:14:21.106Z,25.28
2017-04-28T21:16:49.429Z,24.15
2017-04-28T21:19:18.076Z,28.80
2017-04-28T21:21:46.960Z,27.23
2017-04-28T21:24:15.679Z,21.10
2017-04-28T21:26:44.609Z,29.80
2017-04-28T21:29:13.054Z,27.24
2017-04-28T21:31:41.172Z,28.32
2017-04-28T21:34:10.132Z,28.70
2017-04-28T21:36:38.842Z,25.97
2017-04-28T21:39:07.340Z,26.93
2017-04-28T21:41:35.552Z,27.16
2017-04-28T21:44:03.768Z,33.76
2017-04-28T21:46:32.249Z,35.37
2017-04-28T21:48:59.813Z,41.62
2017-04-28T21:51:27.804Z,26.58
2017-04-28T21:53:55.751Z,27.60
2017-04-28T21:56:23.684Z,24.60
2017-04-28T21:58:51.652Z,29.86
2017-04-28T22:01:19.196Z,25.58
2017-04-28T22:03:47.159Z,31.50
2017-04-28T22:06:15.464Z,32.86
2017-04-28T22:08:43.405Z,26.36
2017-04-28T22:11:11.761Z,30.98
2017-04-28T22:13:39.687Z,21.84
2017-04-28T22:16:13.263Z,26.52
2017-04-28T22:18:41.569Z,30.80
2017-04-28T22:21:09.505Z,39.62
2017-04-28T22:23:37.831Z,23.00
2017-04-28T22:26:05.775Z,31.34
2017-04-28T22:28:33.708Z,29.14
2017-04-28T22:31:02.045Z,31.42
2017-04-28T22:33:29.981Z,27.20
2017-04-28T22:35:57.934Z,26.28
2017-04-28T22:38:26.260Z,31.76
2017-04-28T22:40:54.193Z,28.74
2017-04-28T22:43:22.492Z,28.56
2017-04-28T22:45:50.457Z,27.54
2017-04-28T22:48:18.396Z,26.15
2017-04-28T22:50:45.941Z,25.02
2017-04-28T22:53:13.512Z,29.82
2017-04-28T22:55:41.449Z,34.38
2017-04-28T22:58:09.389Z,20.34
2017-04-28T23:00:37.345Z,31.32
2017-04-28T23:03:05.276Z,23.82
2017-04-28T23:05:33.216Z,36.36
2017-04-28T23:08:00.772Z,26.34
2017-04-28T23:10:28.704Z,23.76
2017-04-28T23:12:57.009Z,22.80
2017-04-28T23:15:24.968Z,28.86
2017-04-28T23:17:52.908Z,26.53
2017-04-28T23:20:20.848Z,28.26
2017-04-28T23:22:48.800Z,25.82
2017-04-28T23:25:16.744Z,35.53
2017-04-28T23:27:44.673Z,27.42
2017-04-28T23:30:12.632Z,26.88
2017-04-28T23:32:40.568Z,41.96
2017-04-28T23:35:08.116Z,27.76
2017-04-28T23:37:36.085Z,34.50
2017-04-28T23:40:03.600Z,28.32
2017-04-28T23:42:31.564Z,29.32
2017-04-28T23:44:59.529Z,27.82
2017-04-28T23:47:27.476Z,31.70
2017-04-28T23:49:55.423Z,36.98
2017-04-28T23:52:23.753Z,27.76
2017-04-28T23:54:51.688Z,25.98
2017-04-28T23:57:19.646Z,30.94
2017-04-28T23:59:47.599Z,27.60
